Time;durP1;ratioP1;P1;durP2;ratioP2;P2;SDS_P1;SDS_P2;PMS_P1;PMS_P2;Temp;Humidity;BMP_temperature;BMP_pressure;BME280_temperature;BME280_humidity;BME280_pressure;Samples;Min_cycle;Max_cycle;Signal;HPM_P1;HPM_P2
2022/10/17 00:00:46;;;;;;;;;;;;;;;19.14;67.64;101568.12;2317782;75;50940;-76
2022/10/17 00:03:47;;;;;;;;;;;;;;;19.14;67.60;101571.63;2368286;75;51504;-76
2022/10/17 00:06:49;;;;;;;;;;;;;;;19.14;67.64;101572.14;2368499;74;50428;-78
2022/10/17 00:09:51;;;;;;;;;;;;;;;19.14;67.58;101565.44;2368485;75;50389;-77
2022/10/17 00:12:52;;;;;;;;;;;;;;;19.15;67.53;101575.98;2317195;75;50076;-77
2022/10/17 00:15:54;;;;;;;;;;;;;;;19.16;67.50;101574.13;2336284;75;51457;-78
2022/10/17 00:18:55;;;;;;;;;;;;;;;19.17;67.53;101579.86;2336226;75;51551;-77
2022/10/17 00:21:57;;;;;;;;;;;;;;;19.18;67.45;101577.50;2336206;76;50635;-77
2022/10/17 00:24:58;;;;;;;;;;;;;;;19.16;67.54;101566.09;2323596;76;52612;-78
2022/10/17 00:28:00;;;;;;;;;;;;;;;19.15;67.61;101556.38;2310062;76;52490;-77
2022/10/17 00:31:02;;;;;;;;;;;;;;;19.16;67.51;101559.37;2336326;76;51466;-76
2022/10/17 00:34:04;;;;;;;;;;;;;;;19.14;67.57;101565.44;2337594;75;50773;-77
2022/10/17 00:37:06;;;;;;;;;;;;;;;19.15;67.60;101580.52;2304220;75;51520;-77
2022/10/17 00:40:08;;;;;;;;;;;;;;;19.14;67.62;101572.14;2330803;76;51430;-77
2022/10/17 00:43:11;;;;;;;;;;;;;;;19.15;67.58;101563.91;2340519;75;51549;-77
2022/10/17 00:46:12;;;;;;;;;;;;;;;19.15;67.57;101560.39;2378324;74;50535;-77
2022/10/17 00:49:14;;;;;;;;;;;;;;;19.14;67.61;101558.22;2325212;75;51258;-76
2022/10/17 00:52:23;;;;;;;;;;;;;;;19.14;67.61;101564.09;2379192;75;50234;-76
2022/10/17 00:55:33;;;;;;;;;;;;;;;19.14;67.62;101565.44;2378964;75;51591;-77
2022/10/17 00:58:31;;;;;;;;;;;;;;;19.14;67.63;101560.07;2377988;73;22152;-77
2022/10/17 01:01:32;;;;;;;;;;;;;;;19.14;67.70;101573.48;2353451;75;49525;-77
2022/10/17 01:04:35;;;;;;;;;;;;;;;19.13;67.61;101575.30;2379024;75;50384;-75
2022/10/17 01:07:37;;;;;;;;;;;;;;;19.13;67.65;101582.52;2379189;73;51552;-77
2022/10/17 01:10:44;;;;;;;;;;;;;;;19.14;67.65;101580.19;2379316;74;51594;-77
2022/10/17 01:13:49;;;;;;;;;;;;;;;19.14;67.64;101580.19;2324002;75;50516;-77
2022/10/17 01:16:55;;;;;;;;;;;;;;;19.13;67.68;101575.81;2379149;74;50381;-77
2022/10/17 01:20:04;;;;;;;;;;;;;;;19.14;67.63;101564.09;2378857;74;51664;-77
2022/10/17 01:23:10;;;;;;;;;;;;;;;19.13;67.64;101557.03;2379235;75;52625;-77
2022/10/17 01:26:13;;;;;;;;;;;;;;;19.14;67.63;101561.41;2352814;75;52471;-76
2022/10/17 01:29:33;;;;;;;;;;;;;;;19.13;67.62;101551.66;2379070;75;51566;-78
2022/10/17 01:32:36;;;;;;;;;;;;;;;19.13;67.63;101547.13;2379132;74;51461;-74
2022/10/17 01:35:42;;;;;;;;;;;;;;;19.14;67.59;101553.36;2378965;75;50493;-75
2022/10/17 01:38:45;;;;;;;;;;;;;;;19.14;67.59;101541.30;2353662;75;49624;-75
2022/10/17 01:41:51;;;;;;;;;;;;;;;19.12;67.57;101544.12;2378894;75;50418;-77
2022/10/17 01:45:01;;;;;;;;;;;;;;;19.12;67.57;101545.98;2378745;75;50520;-77
2022/10/17 01:48:04;;;;;;;;;;;;;;;19.15;67.55;101541.62;2362449;73;50276;-78
2022/10/17 01:51:07;;;;;;;;;;;;;;;19.14;67.55;101538.61;2353644;74;51117;-78
2022/10/17 01:54:16;;;;;;;;;;;;;;;19.13;67.53;101535.06;2378989;74;51552;-77
2022/10/17 01:57:19;;;;;;;;;;;;;;;19.14;67.51;101538.61;2377800;73;51537;-78
2022/10/17 02:00:22;;;;;;;;;;;;;;;19.14;67.49;101542.13;2379192;75;51513;-78
2022/10/17 02:03:23;;;;;;;;;;;;;;;19.15;67.45;101540.27;2380745;74;51364;-77
2022/10/17 02:06:25;;;;;;;;;;;;;;;19.13;67.52;101538.25;2379171;75;50718;-77
2022/10/17 02:09:27;;;;;;;;;;;;;;;19.12;67.52;101540.61;2379330;73;51410;-77
2022/10/17 02:12:39;;;;;;;;;;;;;;;19.12;67.53;101540.61;2370790;75;51586;-77
2022/10/17 02:15:59;;;;;;;;;;;;;;;19.13;67.56;101539.08;2353055;74;52904;-74
2022/10/17 02:19:05;;;;;;;;;;;;;;;19.12;67.58;101541.95;2391917;74;51484;-78
2022/10/17 02:22:26;;;;;;;;;;;;;;;19.12;67.61;101544.12;2389989;74;51577;-77
2022/10/17 02:25:35;;;;;;;;;;;;;;;19.12;67.57;101541.95;2378351;74;51560;-77
2022/10/17 02:28:45;;;;;;;;;;;;;;;19.12;67.61;101543.30;2353934;74;49640;-77
2022/10/17 02:31:47;;;;;;;;;;;;;;;19.13;67.56;101541.77;2379068;74;50411;-76
2022/10/17 02:34:50;;;;;;;;;;;;;;;19.13;67.53;101539.59;2380576;74;51569;-77
2022/10/17 02:37:51;;;;;;;;;;;;;;;19.12;67.50;101535.25;2380689;73;50808;-76
2022/10/17 02:40:53;;;;;;;;;;;;;;;19.12;67.45;101539.27;2354133;75;52680;-76
2022/10/17 02:43:54;;;;;;;;;;;;;;;19.12;67.44;101531.22;2363231;75;50707;-77
2022/10/17 02:46:57;;;;;;;;;;;;;;;19.14;67.37;101525.20;2379458;73;51475;-76
2022/10/17 02:49:59;;;;;;;;;;;;;;;19.13;67.40;101527.52;2381580;74;51533;-78
2022/10/17 02:53:02;;;;;;;;;;;;;;;19.12;67.41;101526.69;2354567;75;49845;-77
2022/10/17 02:56:05;;;;;;;;;;;;;;;19.11;67.45;101522.34;2379213;75;51533;-74
2022/10/17 02:59:07;;;;;;;;;;;;;;;19.12;67.40;101518.64;2378986;73;50465;-76
2022/10/17 03:02:08;;;;;;;;;;;;;;;19.13;67.46;101527.52;2379057;74;50729;-77
2022/10/17 03:05:11;;;;;;;;;;;;;;;19.12;67.43;101526.69;2353348;75;51808;-76
2022/10/17 03:08:12;;;;;;;;;;;;;;;19.13;67.43;101522.16;2353573;74;50164;-77
2022/10/17 03:11:14;;;;;;;;;;;;;;;19.13;67.42;101523.50;2353510;75;50312;-78
2022/10/17 03:14:15;;;;;;;;;;;;;;;19.13;67.42;101524.84;2354944;74;50285;-77
2022/10/17 03:17:17;;;;;;;;;;;;;;;19.13;67.39;101528.86;2378950;73;50413;-76
2022/10/17 03:20:19;;;;;;;;;;;;;;;19.13;67.40;101522.16;2379021;74;50735;-75
2022/10/17 03:23:20;;;;;;;;;;;;;;;19.12;67.38;101525.86;2378852;74;51528;-75
2022/10/17 03:26:22;;;;;;;;;;;;;;;19.13;67.36;101531.55;2379021;74;51584;-75
2022/10/17 03:29:23;;;;;;;;;;;;;;;19.14;67.35;101525.20;2353259;74;50098;-76
2022/10/17 03:32:25;;;;;;;;;;;;;;;19.13;67.33;101519.47;2352087;75;51515;-76
2022/10/17 03:35:26;;;;;;;;;;;;;;;19.12;67.37;101519.15;2378890;75;50339;-76
2022/10/17 03:38:28;;;;;;;;;;;;;;;19.12;67.34;101515.13;2379033;73;50349;-76
2022/10/17 03:41:30;;;;;;;;;;;;;;;19.13;67.33;101510.09;2379080;75;50348;-76
2022/10/17 03:44:31;;;;;;;;;;;;;;;19.13;67.29;101518.13;2363400;74;50708;-75
2022/10/17 03:47:33;;;;;;;;;;;;;;;19.13;67.32;101522.16;2379023;75;51551;-76
2022/10/17 03:50:34;;;;;;;;;;;;;;;19.12;67.33;101515.95;2379072;75;51615;-76
2022/10/17 03:53:36;;;;;;;;;;;;;;;19.12;67.36;101512.44;2326946;75;51068;-75
2022/10/17 03:56:37;;;;;;;;;;;;;;;19.11;67.33;101509.41;2353455;75;51455;-76
2022/10/17 03:59:39;;;;;;;;;;;;;;;19.12;67.31;101510.59;2378991;75;50312;-77
2022/10/17 04:02:41;;;;;;;;;;;;;;;19.12;67.32;101515.95;2353374;75;50378;-76
2022/10/17 04:05:42;;;;;;;;;;;;;;;19.11;67.35;101503.56;2353125;75;50029;-76
2022/10/17 04:08:44;;;;;;;;;;;;;;;19.11;67.34;101503.56;2353287;75;50756;-76
2022/10/17 04:11:45;;;;;;;;;;;;;;;19.12;67.34;101505.73;2379237;75;51420;-76
2022/10/17 04:14:47;;;;;;;;;;;;;;;19.12;67.30;101499.03;2383051;74;51510;-76
2022/10/17 04:17:48;;;;;;;;;;;;;;;19.11;67.33;101504.04;2353730;74;50911;-76
2022/10/17 04:20:50;;;;;;;;;;;;;;;19.11;67.29;101491.49;2352285;75;51582;-76
2022/10/17 04:23:55;;;;;;;;;;;;;;;19.11;67.30;101495.52;2378947;74;51513;-77
2022/10/17 04:26:57;;;;;;;;;;;;;;;19.11;67.33;101487.95;2379277;73;50413;-76
2022/10/17 04:29:58;;;;;;;;;;;;;;;19.11;67.27;101491.49;2379175;74;50732;-76
2022/10/17 04:33:00;;;;;;;;;;;;;;;19.12;67.25;101495.01;2352178;75;51603;-76
2022/10/17 04:36:02;;;;;;;;;;;;;;;19.11;67.29;101495.52;2379814;74;51524;-78
2022/10/17 04:39:04;;;;;;;;;;;;;;;19.12;67.26;101495.01;2379403;73;50468;-77
2022/10/17 04:42:06;;;;;;;;;;;;;;;19.14;67.16;101494.34;2322854;75;52657;-76
2022/10/17 04:45:08;;;;;;;;;;;;;;;19.14;67.15;101492.50;2351359;75;50253;-77
2022/10/17 04:48:09;;;;;;;;;;;;;;;19.14;67.22;101486.30;2354149;74;50612;-76
2022/10/17 04:51:12;;;;;;;;;;;;;;;19.16;67.27;101497.67;2379381;75;50442;-76
2022/10/17 04:54:13;;;;;;;;;;;;;;;19.14;67.72;101494.34;2353529;74;52787;-77
2022/10/17 04:57:15;;;;;;;;;;;;;;;19.16;67.80;101497.67;2353579;75;51526;-77
2022/10/17 05:00:17;;;;;;;;;;;;;;;19.14;67.88;101489.81;2379396;75;51481;-77
2022/10/17 05:03:18;;;;;;;;;;;;;;;19.18;67.54;101502.38;2379350;74;51582;-76
2022/10/17 05:06:21;;;;;;;;;;;;;;;19.17;67.43;101485.95;2327439;74;51025;-77
2022/10/17 05:09:22;;;;;;;;;;;;;;;19.15;68.85;101494.16;2354151;74;50665;-77
2022/10/17 05:12:24;;;;;;;;;;;;;;;19.16;67.90;101490.97;2346406;75;51464;-78
2022/10/17 05:15:25;;;;;;;;;;;;;;;19.20;68.15;101492.33;2364854;74;50031;-78
2022/10/17 05:18:27;;;;;;;;;;;;;;;19.21;68.30;101493.99;2342598;75;50081;-79
2022/10/17 05:21:29;;;;;;;;;;;;;;;19.21;68.25;101493.99;2342770;75;49702;-78
2022/10/17 05:24:31;;;;;;;;;;;;;;;19.21;68.18;101500.70;2365376;75;50268;-78
2022/10/17 05:27:32;;;;;;;;;;;;;;;19.22;68.25;101504.24;2365542;75;50625;-78
2022/10/17 05:30:35;;;;;;;;;;;;;;;19.22;68.25;101502.39;2365420;75;50734;-78
2022/10/17 05:33:36;;;;;;;;;;;;;;;19.22;68.21;101506.42;2342481;75;50930;-79
2022/10/17 05:36:38;;;;;;;;;;;;;;;19.23;68.19;101497.86;2342674;75;51442;-79
2022/10/17 05:39:40;;;;;;;;;;;;;;;19.21;68.02;101502.04;2365112;75;51463;-80
2022/10/17 05:42:43;;;;;;;;;;;;;;;19.21;68.19;101500.70;2349911;74;51381;-79
2022/10/17 05:45:44;;;;;;;;;;;;;;;19.21;68.05;101502.04;2328548;76;51523;-78
2022/10/17 05:48:46;;;;;;;;;;;;;;;19.22;67.76;101501.05;2311870;76;50676;-78
2022/10/17 05:51:48;;;;;;;;;;;;;;;19.23;67.68;101500.03;2312210;76;50792;-80
2022/10/17 05:54:49;;;;;;;;;;;;;;;19.25;67.56;101503.91;2338270;76;50759;-78
2022/10/17 05:57:52;;;;;;;;;;;;;;;19.23;67.54;101500.55;2313078;76;51115;-78
2022/10/17 06:01:01;;;;;;;;;;;;;;;19.22;67.57;101509.10;2312067;76;50436;-78
2022/10/17 06:04:02;;;;;;;;;;;;;;;19.20;67.58;101507.08;2337948;76;51548;-78
2022/10/17 06:07:04;;;;;;;;;;;;;;;19.21;67.50;101512.77;2311800;75;50342;-78
2022/10/17 06:10:06;;;;;;;;;;;;;;;19.21;67.48;101519.48;2313167;76;50980;-78
2022/10/17 06:13:07;;;;;;;;;;;;;;;19.20;67.47;101516.47;2331801;74;51648;-79
2022/10/17 06:16:09;;;;;;;;;;;;;;;19.17;67.48;101520.83;2379159;75;50338;-78
2022/10/17 06:19:11;;;;;;;;;;;;;;;19.17;67.48;101532.91;2352377;75;50410;-78
2022/10/17 06:22:12;;;;;;;;;;;;;;;19.17;67.45;101536.09;2353759;74;50975;-78
2022/10/17 06:25:14;;;;;;;;;;;;;;;19.15;67.42;101541.62;2352003;75;50698;-78
2022/10/17 06:28:16;;;;;;;;;;;;;;;19.16;67.44;101543.28;2379129;73;50360;-78
2022/10/17 06:31:17;;;;;;;;;;;;;;;19.14;67.42;101547.48;2352394;75;50240;-78
2022/10/17 06:34:19;;;;;;;;;;;;;;;19.15;67.36;101543.79;2353537;75;51773;-78
2022/10/17 06:37:20;;;;;;;;;;;;;;;19.16;67.31;101548.64;2351853;73;53473;-79
2022/10/17 06:40:22;;;;;;;;;;;;;;;19.15;67.29;101555.86;2379324;74;50697;-78
2022/10/17 06:43:23;;;;;;;;;;;;;;;19.17;67.23;101554.38;2345925;74;51431;-78
2022/10/17 06:46:28;;;;;;;;;;;;;;;19.17;67.17;101551.69;2348814;74;52812;-79
2022/10/17 06:49:28;;;;;;;;;;;;;;;19.18;67.13;101561.41;2357425;74;22404;-78
2022/10/17 06:52:30;;;;;;;;;;;;;;;19.20;67.06;101563.42;2380085;74;50469;-79
2022/10/17 06:55:32;;;;;;;;;;;;;;;19.21;67.00;101565.09;2379773;74;50118;-78
2022/10/17 06:58:34;;;;;;;;;;;;;;;19.20;66.93;101560.74;2379994;74;50412;-79
2022/10/17 07:01:36;;;;;;;;;;;;;;;19.24;66.77;101562.10;2380168;74;51453;-78
2022/10/17 07:04:37;;;;;;;;;;;;;;;19.25;66.75;101569.64;2379877;74;50710;-78
2022/10/17 07:07:39;;;;;;;;;;;;;;;19.21;66.79;101561.06;2380082;74;50266;-78
2022/10/17 07:10:40;;;;;;;;;;;;;;;19.21;66.81;101557.04;2357140;74;49565;-78
2022/10/17 07:13:42;;;;;;;;;;;;;;;19.22;66.78;101565.95;2363445;74;50353;-78
2022/10/17 07:16:44;;;;;;;;;;;;;;;19.22;66.76;101568.64;2379207;73;50909;-79
2022/10/17 07:19:45;;;;;;;;;;;;;;;19.29;66.50;101565.13;2379199;75;50304;-79
2022/10/17 07:22:47;;;;;;;;;;;;;;;19.29;66.46;101571.84;2379181;75;50230;-78
2022/10/17 07:25:49;;;;;;;;;;;;;;;19.31;66.40;101576.52;2352040;75;50734;-79
2022/10/17 07:28:51;;;;;;;;;;;;;;;19.33;66.26;101578.53;2379120;73;50476;-78
2022/10/17 07:31:53;;;;;;;;;;;;;;;19.30;66.33;101578.04;2379181;75;51492;-78
2022/10/17 07:34:54;;;;;;;;;;;;;;;19.31;66.31;101586.41;2353390;75;51371;-78
2022/10/17 07:37:56;;;;;;;;;;;;;;;19.29;66.30;101585.26;2352179;75;50255;-78
2022/10/17 07:40:58;;;;;;;;;;;;;;;19.29;66.32;101578.55;2379618;74;50242;-78
2022/10/17 07:43:59;;;;;;;;;;;;;;;19.32;66.18;101578.21;2363110;75;51531;-78
2022/10/17 07:47:01;;;;;;;;;;;;;;;19.31;66.27;101579.20;2353507;75;51105;-78
2022/10/17 07:50:03;;;;;;;;;;;;;;;19.30;66.28;101582.90;2353785;75;50277;-79
2022/10/17 07:53:05;;;;;;;;;;;;;;;19.29;66.29;101587.94;2353544;75;50734;-78
2022/10/17 07:56:07;;;;;;;;;;;;;;;19.30;66.24;101586.92;2379053;75;51535;-78
2022/10/17 07:59:08;;;;;;;;;;;;;;;19.31;66.20;101587.25;2353682;75;51112;-78
2022/10/17 08:02:23;;;;;;;;;;;;;;;19.33;66.13;101589.78;2379128;75;50636;-78
2022/10/17 08:05:25;;;;;;;;;;;;;;;19.31;66.15;101588.59;2379028;75;49969;-78
2022/10/17 08:08:27;;;;;;;;;;;;;;;19.29;66.19;101583.91;2379068;75;50752;-77
2022/10/17 08:11:28;;;;;;;;;;;;;;;19.30;66.16;101584.75;2353576;75;51782;-78
2022/10/17 08:14:30;;;;;;;;;;;;;;;19.29;66.16;101589.76;2337668;75;51527;-78
2022/10/17 08:17:31;;;;;;;;;;;;;;;19.28;66.16;101592.95;2311609;75;51553;-78
2022/10/17 08:20:33;;;;;;;;;;;;;;;19.30;66.09;101588.77;2311558;76;51528;-78
2022/10/17 08:23:35;;;;;;;;;;;;;;;19.29;66.08;101595.13;2285343;76;50103;-78
2022/10/17 08:26:37;;;;;;;;;;;;;;;19.30;66.02;101590.11;2334446;75;51676;-78
2022/10/17 08:29:40;;;;;;;;;;;;;;;19.30;66.03;101589.61;2371795;74;50682;-78
2022/10/17 08:32:41;;;;;;;;;;;;;;;19.35;66.18;101586.44;2360127;75;51728;-78
2022/10/17 08:35:43;;;;;;;;;;;;;;;19.33;66.33;101587.93;2345086;75;52534;-77
2022/10/17 08:38:45;;;;;;;;;;;;;;;19.32;66.36;101578.21;2368565;75;51469;-78
2022/10/17 08:41:51;;;;;;;;;;;;;;;19.34;66.30;101586.94;2293424;76;51546;-76
2022/10/17 08:45:09;;;;;;;;;;;;;;;19.34;66.22;101583.39;2309591;76;51000;-77
2022/10/17 08:48:12;;;;;;;;;;;;;;;19.35;66.30;101578.38;2367423;74;51936;-77
2022/10/17 08:51:15;;;;;;;;;;;;;;;19.32;66.35;101574.19;2373340;75;50868;-77
2022/10/17 08:54:22;;;;;;;;;;;;;;;19.34;66.25;101577.55;2375087;74;50816;-77
2022/10/17 08:57:23;;;;;;;;;;;;;;;19.37;66.15;101572.36;2414786;73;50432;-76
2022/10/17 09:00:25;;;;;;;;;;;;;;;19.36;66.13;101572.83;2380643;73;50069;-77
2022/10/17 09:03:28;;;;;;;;;;;;;;;19.39;66.09;101574.85;2381108;73;50410;-77
2022/10/17 09:06:34;;;;;;;;;;;;;;;19.40;66.00;101573.87;2413828;73;50496;-78
2022/10/17 09:09:49;;;;;;;;;;;;;;;19.43;65.86;101572.19;2414135;73;51580;-78
2022/10/17 09:12:53;;;;;;;;;;;;;;;19.39;65.97;101569.48;2371019;74;50213;-77
2022/10/17 09:16:02;;;;;;;;;;;;;;;19.42;65.92;101578.54;2378608;74;51497;-77
2022/10/17 09:19:11;;;;;;;;;;;;;;;19.47;65.85;101577.54;2379507;73;51488;-77
2022/10/17 09:22:14;;;;;;;;;;;;;;;19.41;66.48;101584.42;2358416;75;50811;-77
2022/10/17 09:25:16;;;;;;;;;;;;;;;19.45;66.50;101577.73;2351293;75;51157;-77
2022/10/17 09:28:20;;;;;;;;;;;;;;;19.41;66.37;101579.05;2356288;75;50807;-77
2022/10/17 09:31:22;;;;;;;;;;;;;;;19.44;66.29;101589.95;2356321;75;50746;-77
2022/10/17 09:34:24;;;;;;;;;;;;;;;19.43;66.13;101586.95;2356084;75;51572;-77
2022/10/17 09:37:27;;;;;;;;;;;;;;;19.43;66.18;101581.58;2333241;75;51348;-77
2022/10/17 09:40:30;;;;;;;;;;;;;;;19.44;66.14;101576.53;2353358;75;50752;-77
2022/10/17 09:43:32;;;;;;;;;;;;;;;19.43;66.10;101577.05;2370371;74;50955;-76
2022/10/17 09:46:35;;;;;;;;;;;;;;;19.44;66.20;101575.20;2351861;74;50714;-77
2022/10/17 09:49:41;;;;;;;;;;;;;;;19.44;66.22;101567.14;2309057;76;52045;-78
2022/10/17 09:52:49;;;;;;;;;;;;;;;19.43;66.16;101564.97;2377958;74;51559;-77
2022/10/17 09:55:51;;;;;;;;;;;;;;;19.46;66.07;101577.22;2380103;74;21996;-77
2022/10/17 09:58:53;;;;;;;;;;;;;;;19.46;66.06;101561.95;2356192;74;50809;-77
2022/10/17 10:01:55;;;;;;;;;;;;;;;19.45;65.97;101560.79;2311347;76;50924;-78
2022/10/17 10:04:57;;;;;;;;;;;;;;;19.41;66.25;101562.12;2310375;76;50373;-78
2022/10/17 10:08:01;;;;;;;;;;;;;;;19.41;66.22;101557.58;2346452;76;50770;-78
2022/10/17 10:11:04;;;;;;;;;;;;;;;19.44;66.26;101561.78;2335454;76;50664;-82
2022/10/17 10:14:07;;;;;;;;;;;;;;;19.45;66.20;101562.13;2340664;74;52460;-76
2022/10/17 10:17:26;;;;;;;;;;;;;;;19.47;66.04;101563.64;2381480;73;50728;-77
2022/10/17 10:20:29;;;;;;;;;;;;;;;19.48;66.03;101565.81;2378123;74;50417;-76
2022/10/17 10:23:30;;;;;;;;;;;;;;;19.48;65.93;101567.16;2353706;75;50754;-76
2022/10/17 10:26:36;;;;;;;;;;;;;;;19.50;65.96;101569.19;2328310;75;50933;-76
2022/10/17 10:29:40;;;;;;;;;;;;;;;19.50;65.91;101569.19;2358455;74;50705;-76
2022/10/17 10:32:41;;;;;;;;;;;;;;;19.49;65.91;101563.45;2339025;76;50389;-76
2022/10/17 10:35:43;;;;;;;;;;;;;;;19.52;65.84;101558.61;2331122;76;50393;-76
2022/10/17 10:38:47;;;;;;;;;;;;;;;19.51;65.87;101565.48;2333465;74;50682;-76
2022/10/17 10:41:48;;;;;;;;;;;;;;;19.53;65.89;101560.79;2385227;74;50208;-76
2022/10/17 10:44:50;;;;;;;;;;;;;;;19.53;65.83;101559.45;2382431;74;50767;-76
2022/10/17 10:48:01;;;;;;;;;;;;;;;19.51;65.88;101557.42;2388702;74;50375;-76
2022/10/17 10:51:14;;;;;;;;;;;;;;;19.53;65.83;101558.11;2358536;73;51014;-77
2022/10/17 10:54:24;;;;;;;;;;;;;;;19.56;65.81;101564.47;2390566;73;50756;-77
2022/10/17 10:57:26;;;;;;;;;;;;;;;19.53;65.85;101558.11;2385789;74;50433;-77
2022/10/17 11:00:28;;;;;;;;;;;;;;;19.53;65.79;101550.05;2334081;76;50249;-77
2022/10/17 11:03:34;;;;;;;;;;;;;;;19.54;65.85;101546.34;2380623;73;49538;-77
2022/10/17 11:06:36;;;;;;;;;;;;;;;19.55;65.78;101549.39;2415151;72;50793;-77
2022/10/17 11:09:39;;;;;;;;;;;;;;;19.55;65.78;101548.05;2415414;73;50490;-77
2022/10/17 11:12:52;;;;;;;;;;;;;;;19.57;65.74;101551.38;2394970;73;50206;-77
2022/10/17 11:15:55;;;;;;;;;;;;;;;19.57;65.74;101544.19;2301338;75;50140;-77
2022/10/17 11:19:04;;;;;;;;;;;;;;;19.54;65.76;101542.32;2380226;73;51548;-77
2022/10/17 11:22:22;;;;;;;;;;;;;;;19.54;65.79;101540.98;2259752;77;51615;-76
2022/10/17 11:25:31;;;;;;;;;;;;;;;19.55;65.77;101538.65;2339054;76;51444;-77
2022/10/17 11:28:48;;;;;;;;;;;;;;;19.55;65.71;101532.77;2315090;76;51716;-79
2022/10/17 11:31:55;;;;;;;;;;;;;;;19.54;65.75;101524.87;2301303;77;22215;-79
2022/10/17 11:35:00;;;;;;;;;;;;;;;19.53;65.81;101522.70;2318730;76;22457;-79
2022/10/17 11:38:03;;;;;;;;;;;;;;;19.56;65.86;101530.92;2324782;76;51857;-77
2022/10/17 11:41:05;;;;;;;;;;;;;;;19.53;65.92;101528.58;2316976;77;49553;-77
2022/10/17 11:44:08;;;;;;;;;;;;;;;19.57;65.87;101525.88;2315522;76;50482;-80
2022/10/17 11:47:27;;;;;;;;;;;;;;;19.58;65.90;101520.86;2308328;77;50540;-77
2022/10/17 11:50:36;;;;;;;;;;;;;;;19.58;65.79;101527.57;2307847;77;50829;-76
2022/10/17 11:53:45;;;;;;;;;;;;;;;19.65;65.73;101525.89;2280670;77;49948;-77
2022/10/17 11:57:04;;;;;;;;;;;;;;;19.63;65.69;101525.22;2308843;77;51518;-77
2022/10/17 12:00:08;;;;;;;;;;;;;;;19.60;65.78;101518.84;2309033;77;50380;-76
2022/10/17 12:03:24;;;;;;;;;;;;;;;19.62;65.88;101522.69;2308079;77;50884;-77
2022/10/17 12:06:30;;;;;;;;;;;;;;;19.61;65.90;101516.48;2282507;77;50095;-79
2022/10/17 12:09:33;;;;;;;;;;;;;;;19.63;65.86;101509.11;2345197;75;50419;-79
2022/10/17 12:12:36;;;;;;;;;;;;;;;19.63;65.85;101518.51;2308525;76;50421;-76
2022/10/17 12:15:37;;;;;;;;;;;;;;;19.62;65.87;101516.81;2335022;76;51542;-77
2022/10/17 12:18:39;;;;;;;;;;;;;;;19.62;65.90;101515.47;2287396;76;51260;-77
2022/10/17 12:21:54;;;;;;;;;;;;;;;19.65;65.86;101519.19;2360121;75;50765;-76
2022/10/17 12:24:57;;;;;;;;;;;;;;;19.64;65.87;101517.48;2361938;74;50757;-76
2022/10/17 12:28:12;;;;;;;;;;;;;;;19.71;65.82;101512.33;2380146;73;50662;-77
2022/10/17 12:31:20;;;;;;;;;;;;;;;19.70;65.67;101504.75;2356608;74;50089;-77
2022/10/17 12:34:22;;;;;;;;;;;;;;;19.73;65.57;101512.48;2380061;74;51560;-77
2022/10/17 12:37:41;;;;;;;;;;;;;;;19.83;65.26;101514.14;2380492;73;50497;-78
2022/10/17 12:40:49;;;;;;;;;;;;;;;19.84;65.05;101494.34;2380790;74;51605;-77
2022/10/17 12:43:51;;;;;;;;;;;;;;;19.77;65.23;101500.38;2345445;75;50982;-77
2022/10/17 12:46:56;;;;;;;;;;;;;;;19.73;65.46;101503.09;2354605;73;52124;-77
2022/10/17 12:49:58;;;;;;;;;;;;;;;19.72;65.52;101498.70;2380143;75;50665;-78
2022/10/17 12:53:01;;;;;;;;;;;;;;;19.75;65.50;101494.84;2354075;74;50938;-77
2022/10/17 12:56:03;;;;;;;;;;;;;;;19.77;65.43;101503.58;2354037;75;52628;-77
2022/10/17 12:59:09;;;;;;;;;;;;;;;19.75;65.45;101502.39;2353302;75;50826;-77
2022/10/17 13:02:12;;;;;;;;;;;;;;;19.73;65.51;101499.55;2355191;74;50400;-78
2022/10/17 13:05:31;;;;;;;;;;;;;;;19.74;65.46;101498.05;2354060;75;51831;-78
2022/10/17 13:08:33;;;;;;;;;;;;;;;19.74;65.49;101493.18;2354359;74;52697;-77
2022/10/17 13:11:35;;;;;;;;;;;;;;;19.73;65.52;101490.14;2379983;75;50417;-78
2022/10/17 13:14:37;;;;;;;;;;;;;;;19.73;65.53;101485.64;2354595;75;50413;-78
2022/10/17 13:17:38;;;;;;;;;;;;;;;19.75;65.50;101482.77;2338764;75;51472;-77
2022/10/17 13:20:40;;;;;;;;;;;;;;;19.74;65.46;101483.27;2313891;76;50664;-77
2022/10/17 13:23:42;;;;;;;;;;;;;;;19.73;65.52;101486.98;2312215;76;50342;-77
2022/10/17 13:26:44;;;;;;;;;;;;;;;19.74;65.44;101487.30;2338577;75;50360;-76
2022/10/17 13:29:46;;;;;;;;;;;;;;;19.74;65.53;101491.33;2338660;76;50742;-77
2022/10/17 13:32:48;;;;;;;;;;;;;;;19.73;65.49;101493.69;2287200;76;49679;-77
2022/10/17 13:35:49;;;;;;;;;;;;;;;19.71;65.54;101488.98;2312184;76;50765;-77
2022/10/17 13:38:51;;;;;;;;;;;;;;;19.70;65.52;101495.86;2338818;75;51511;-78
2022/10/17 13:41:53;;;;;;;;;;;;;;;19.71;65.50;101494.36;2341896;75;51667;-77
2022/10/17 13:44:54;;;;;;;;;;;;;;;19.70;65.50;101491.83;2375478;74;51595;-78
2022/10/17 13:47:57;;;;;;;;;;;;;;;19.69;65.51;101492.34;2380136;73;50369;-78
2022/10/17 13:51:00;;;;;;;;;;;;;;;19.70;65.45;101484.61;2380311;74;51443;-77
2022/10/17 13:54:02;;;;;;;;;;;;;;;19.69;65.43;101486.97;2378005;74;51647;-78
2022/10/17 13:57:03;;;;;;;;;;;;;;;19.70;65.45;101491.32;2380018;73;50722;-78
2022/10/17 14:00:06;;;;;;;;;;;;;;;19.71;65.51;101491.67;2352694;75;50809;-78
2022/10/17 14:03:08;;;;;;;;;;;;;;;19.72;65.49;101496.02;2379963;75;50285;-78
2022/10/17 14:06:14;;;;;;;;;;;;;;;19.71;65.48;101493.02;2352903;75;50120;-78
2022/10/17 14:09:17;;;;;;;;;;;;;;;19.73;65.49;101497.72;2379797;73;51579;-78
2022/10/17 14:12:19;;;;;;;;;;;;;;;19.73;65.46;101500.41;2372403;74;51606;-77
2022/10/17 14:15:21;;;;;;;;;;;;;;;19.76;65.42;101500.57;2363770;75;50670;-78
2022/10/17 14:18:26;;;;;;;;;;;;;;;19.77;65.44;101497.70;2365639;75;50768;-77
2022/10/17 14:21:28;;;;;;;;;;;;;;;19.79;65.42;101501.56;2341965;75;51037;-78
2022/10/17 14:24:30;;;;;;;;;;;;;;;19.78;65.41;101502.08;2365407;75;50301;-77
2022/10/17 14:27:36;;;;;;;;;;;;;;;19.79;65.40;101501.05;2342655;75;50247;-78
2022/10/17 14:30:39;;;;;;;;;;;;;;;19.81;65.37;101500.90;2365274;75;49985;-78
2022/10/17 14:33:45;;;;;;;;;;;;;;;19.79;65.45;101501.56;2342314;75;52583;-78
2022/10/17 14:36:46;;;;;;;;;;;;;;;19.78;65.49;101506.11;2364162;75;50794;-77
2022/10/17 14:39:48;;;;;;;;;;;;;;;19.78;65.48;101503.42;2365481;75;51563;-78
2022/10/17 14:42:50;;;;;;;;;;;;;;;19.79;65.44;101501.56;2370760;75;50375;-78
2022/10/17 14:45:52;;;;;;;;;;;;;;;19.80;65.45;101508.09;2352510;75;52516;-78
2022/10/17 14:48:58;;;;;;;;;;;;;;;19.77;65.48;101517.84;2379994;73;51553;-77
2022/10/17 14:52:16;;;;;;;;;;;;;;;19.76;65.53;101516.68;2379625;74;50943;-78
2022/10/17 14:55:25;;;;;;;;;;;;;;;19.75;65.57;101520.36;2380052;75;50450;-78
2022/10/17 14:58:28;;;;;;;;;;;;;;;19.75;65.54;101512.30;2354356;74;49840;-78
2022/10/17 15:01:30;;;;;;;;;;;;;;;19.74;65.48;101515.50;2378272;74;51502;-78
2022/10/17 15:04:31;;;;;;;;;;;;;;;19.74;65.43;101520.86;2379754;74;51629;-77
2022/10/17 15:07:33;;;;;;;;;;;;;;;19.75;65.41;101521.19;2379701;73;51474;-78
2022/10/17 15:10:35;;;;;;;;;;;;;;;19.73;65.42;101520.55;2354286;75;50129;-78
2022/10/17 15:13:37;;;;;;;;;;;;;;;19.74;65.40;101528.09;2352720;74;50763;-77
2022/10/17 15:16:38;;;;;;;;;;;;;;;19.72;65.41;101518.02;2343119;75;50144;-78
2022/10/17 15:19:40;;;;;;;;;;;;;;;19.72;65.42;101516.67;2342141;75;50670;-77
2022/10/17 15:22:42;;;;;;;;;;;;;;;19.71;65.40;101523.90;2342179;75;51288;-77
2022/10/17 15:25:43;;;;;;;;;;;;;;;19.72;65.43;101522.88;2341635;75;50728;-77
2022/10/17 15:28:46;;;;;;;;;;;;;;;19.70;65.50;101523.55;2364898;75;50733;-77
2022/10/17 15:31:47;;;;;;;;;;;;;;;19.71;65.41;101527.09;2365055;75;51519;-77
2022/10/17 15:34:49;;;;;;;;;;;;;;;19.69;65.43;101528.59;2341798;75;52438;-78
2022/10/17 15:37:50;;;;;;;;;;;;;;;19.68;65.49;101528.75;2342298;75;50392;-77
2022/10/17 15:40:52;;;;;;;;;;;;;;;19.66;65.49;101527.56;2364964;75;50439;-78